Time;durP1;ratioP1;P1;durP2;ratioP2;P2;SDS_P1;SDS_P2;PMS_P1;PMS_P2;Temp;Humidity;BMP_temperature;BMP_pressure;BME280_temperature;BME280_humidity;BME280_pressure;Samples;Min_cycle;Max_cycle;Signal;HPM_P1;HPM_P2
2023/07/08 00:00:10;;;;;;;1999.90;999.90;;;;;;;;;;5096784;28;20048;-72
2023/07/08 00:02:37;;;;;;;1999.90;999.90;;;;;;;;;;5099827;28;20163;-74
2023/07/08 00:05:03;;;;;;;1999.90;999.90;;;;;;;;;;5101164;28;20044;-73
2023/07/08 00:07:30;;;;;;;1999.90;999.90;;;;;;;;;;5100539;28;20044;-72
2023/07/08 00:09:56;;;;;;;1999.90;999.90;;;;;;;;;;5098973;28;20040;-73
2023/07/08 00:12:24;;;;;;;1999.90;999.90;;;;;;;;;;5099815;28;20044;-72
2023/07/08 00:14:50;;;;;;;1999.90;999.90;;;;;;;;;;5093119;28;20048;-75
2023/07/08 00:17:17;;;;;;;1999.90;999.90;;;;;;;;;;5098813;28;20047;-73
2023/07/08 00:19:43;;;;;;;1999.90;999.90;;;;;;;;;;5100041;28;20063;-73
2023/07/08 00:22:13;;;;;;;1999.90;999.90;;;;;;;;;;5100281;28;20458;-74
2023/07/08 00:24:40;;;;;;;1999.90;999.90;;;;;;;;;;5099351;28;20063;-73
2023/07/08 00:27:09;;;;;;;1999.90;999.90;;;;;;;;;;5100753;28;20102;-75
2023/07/08 00:29:37;;;;;;;1999.90;999.90;;;;;;;;;;5098792;28;20495;-73
2023/07/08 00:32:10;;;;;;;1999.90;999.90;;;;;;;;;;5099271;28;20067;-73
2023/07/08 00:34:37;;;;;;;1999.90;999.90;;;;;;;;;;5099935;28;20051;-73
2023/07/08 00:37:05;;;;;;;1999.90;999.90;;;;;;;;;;5099267;28;20492;-74
2023/07/08 00:39:31;;;;;;;1999.90;999.90;;;;;;;;;;5095842;28;20046;-73
2023/07/08 00:41:59;;;;;;;1999.90;999.90;;;;;;;;;;5100237;28;20048;-72
2023/07/08 00:44:26;;;;;;;1999.90;999.90;;;;;;;;;;5101931;28;20669;-73
2023/07/08 00:46:59;;;;;;;1999.90;999.90;;;;;;;;;;5097572;28;20423;-73
2023/07/08 00:49:32;;;;;;;1999.90;999.90;;;;;;;;;;5099272;28;20040;-74
2023/07/08 00:52:17;;;;;;;1999.90;999.90;;;;;;;;;;5099336;28;20056;-74
2023/07/08 00:54:43;;;;;;;1999.90;999.90;;;;;;;;;;5097883;28;20055;-73
2023/07/08 00:57:10;;;;;;;1999.90;999.90;;;;;;;;;;5103225;28;20430;-73
2023/07/08 00:59:39;;;;;;;1999.90;999.90;;;;;;;;;;5100736;28;20094;-73
2023/07/08 01:02:10;;;;;;;1999.90;999.90;;;;;;;;;;5105447;22;20048;-75
2023/07/08 01:04:42;;;;;;;1999.90;999.90;;;;;;;;;;5112392;28;20047;-74
2023/07/08 01:07:09;;;;;;;1999.90;999.90;;;;;;;;;;5112206;28;20130;-73
2023/07/08 01:09:41;;;;;;;1999.90;999.90;;;;;;;;;;5113254;28;20066;-74
2023/07/08 01:12:14;;;;;;;1999.90;999.90;;;;;;;;;;5112895;28;20067;-73
2023/07/08 01:14:42;;;;;;;1999.90;999.90;;;;;;;;;;5113201;28;20032;-73
2023/07/08 01:17:13;;;;;;;1999.90;999.90;;;;;;;;;;5113421;28;20074;-74
2023/07/08 01:19:40;;;;;;;1999.90;999.90;;;;;;;;;;5112765;28;20043;-73
2023/07/08 01:22:08;;;;;;;1999.90;999.90;;;;;;;;;;5112896;28;20411;-73
2023/07/08 01:24:38;;;;;;;1999.90;999.90;;;;;;;;;;5112524;28;20407;-73
2023/07/08 01:27:07;;;;;;;1999.90;999.90;;;;;;;;;;5111966;28;20116;-73
2023/07/08 01:29:33;;;;;;;1999.90;999.90;;;;;;;;;;5110827;28;20498;-74
2023/07/08 01:32:02;;;;;;;1999.90;999.90;;;;;;;;;;5112467;28;20048;-75
2023/07/08 01:34:29;;;;;;;1999.90;999.90;;;;;;;;;;5112527;28;20118;-72
2023/07/08 01:36:56;;;;;;;1999.90;999.90;;;;;;;;;;5111949;28;20592;-73
2023/07/08 01:39:26;;;;;;;1999.90;999.90;;;;;;;;;;5111752;28;20050;-73
2023/07/08 01:41:53;;;;;;;1999.90;999.90;;;;;;;;;;5111998;28;20060;-73
2023/07/08 01:44:23;;;;;;;1999.90;999.90;;;;;;;;;;5112142;28;20127;-73
2023/07/08 01:46:50;;;;;;;1999.90;999.90;;;;;;;;;;5112391;28;20051;-72
2023/07/08 01:49:17;;;;;;;1999.90;999.90;;;;;;;;;;5111754;28;20051;-73
2023/07/08 01:51:43;;;;;;;1999.90;999.90;;;;;;;;;;5111517;28;20055;-72
2023/07/08 01:54:10;;;;;;;1999.90;999.90;;;;;;;;;;5111935;28;20054;-73
2023/07/08 01:56:38;;;;;;;1999.90;999.90;;;;;;;;;;5111675;28;20058;-73
2023/07/08 01:59:04;;;;;;;1999.90;999.90;;;;;;;;;;5111976;28;20040;-73
2023/07/08 02:01:31;;;;;;;1999.90;999.90;;;;;;;;;;5111842;28;20046;-75
2023/07/08 02:03:57;;;;;;;1999.90;999.90;;;;;;;;;;5111893;28;20058;-73
2023/07/08 02:06:24;;;;;;;1999.90;999.90;;;;;;;;;;5112143;28;20050;-72
2023/07/08 02:08:51;;;;;;;1999.90;999.90;;;;;;;;;;5111685;28;20457;-73
2023/07/08 02:11:17;;;;;;;1999.90;999.90;;;;;;;;;;5111612;28;20128;-73
2023/07/08 02:13:45;;;;;;;1999.90;999.90;;;;;;;;;;5111907;28;20056;-73
2023/07/08 02:16:11;;;;;;;1999.90;999.90;;;;;;;;;;5112077;28;20046;-73
2023/07/08 02:18:38;;;;;;;1999.90;999.90;;;;;;;;;;5110808;28;20040;-73
2023/07/08 02:21:05;;;;;;;1999.90;999.90;;;;;;;;;;5111653;28;20052;-73
2023/07/08 02:23:31;;;;;;;1999.90;999.90;;;;;;;;;;5110632;28;20039;-73
2023/07/08 02:25:58;;;;;;;1999.90;999.90;;;;;;;;;;5112015;28;20491;-72
2023/07/08 02:28:24;;;;;;;1999.90;999.90;;;;;;;;;;5111445;28;20039;-73
2023/07/08 02:30:52;;;;;;;1999.90;999.90;;;;;;;;;;5111107;28;20056;-73
2023/07/08 02:33:19;;;;;;;1999.90;999.90;;;;;;;;;;5111420;28;20055;-73
2023/07/08 02:35:45;;;;;;;1999.90;999.90;;;;;;;;;;5110232;28;20044;-76
2023/07/08 02:38:12;;;;;;;1999.90;999.90;;;;;;;;;;5111325;28;20477;-74
2023/07/08 02:40:38;;;;;;;1999.90;999.90;;;;;;;;;;5111452;28;20497;-73
2023/07/08 02:43:05;;;;;;;1999.90;999.90;;;;;;;;;;5111192;28;20467;-73
2023/07/08 02:45:31;;;;;;;1999.90;999.90;;;;;;;;;;5111123;28;20609;-75
2023/07/08 02:47:59;;;;;;;1999.90;999.90;;;;;;;;;;5111274;28;20510;-73
2023/07/08 02:50:25;;;;;;;1999.90;999.90;;;;;;;;;;5109986;28;20051;-74
2023/07/08 02:52:52;;;;;;;1999.90;999.90;;;;;;;;;;5111063;28;20139;-74
2023/07/08 02:55:18;;;;;;;1999.90;999.90;;;;;;;;;;5110715;28;20043;-73
2023/07/08 02:57:45;;;;;;;1999.90;999.90;;;;;;;;;;5111028;28;20491;-74
2023/07/08 03:00:13;;;;;;;1999.90;999.90;;;;;;;;;;5111156;28;20486;-74
2023/07/08 03:02:39;;;;;;;1999.90;999.90;;;;;;;;;;5110509;28;20123;-73
2023/07/08 03:05:08;;;;;;;1999.90;999.90;;;;;;;;;;5111382;28;20043;-75
2023/07/08 03:07:35;;;;;;;1999.90;999.90;;;;;;;;;;5111113;28;20043;-72
2023/07/08 03:10:01;;;;;;;1999.90;999.90;;;;;;;;;;5111141;28;20039;-77
2023/07/08 03:12:28;;;;;;;1999.90;999.90;;;;;;;;;;5111229;28;20039;-73
2023/07/08 03:14:54;;;;;;;1999.90;999.90;;;;;;;;;;5110837;28;20482;-73
2023/07/08 03:17:20;;;;;;;1999.90;999.90;;;;;;;;;;5111097;28;20044;-75
2023/07/08 03:19:47;;;;;;;1999.90;999.90;;;;;;;;;;5110475;28;20048;-73
2023/07/08 03:22:15;;;;;;;1999.90;999.90;;;;;;;;;;5110821;28;20055;-73
2023/07/08 03:24:45;;;;;;;1999.90;999.90;;;;;;;;;;5110617;28;20043;-74
2023/07/08 03:27:12;;;;;;;1999.90;999.90;;;;;;;;;;5110386;28;20552;-73
2023/07/08 03:29:39;;;;;;;1999.90;999.90;;;;;;;;;;5110672;28;20052;-74
2023/07/08 03:32:11;;;;;;;1999.90;999.90;;;;;;;;;;5110800;28;20096;-73
2023/07/08 03:34:38;;;;;;;1999.90;999.90;;;;;;;;;;5110642;28;20050;-74
2023/07/08 03:37:05;;;;;;;1999.90;999.90;;;;;;;;;;5109897;28;20048;-73
2023/07/08 03:39:33;;;;;;;1999.90;999.90;;;;;;;;;;5110857;28;20435;-73
2023/07/08 03:42:00;;;;;;;1999.90;999.90;;;;;;;;;;5110471;28;20040;-73
2023/07/08 03:44:26;;;;;;;1999.90;999.90;;;;;;;;;;5110556;28;20048;-73
2023/07/08 03:46:52;;;;;;;1999.90;999.90;;;;;;;;;;5110647;28;20074;-73
2023/07/08 03:49:22;;;;;;;1999.90;999.90;;;;;;;;;;5110554;28;20495;-73
2023/07/08 03:51:49;;;;;;;1999.90;999.90;;;;;;;;;;5109259;28;20048;-74
2023/07/08 03:54:16;;;;;;;1999.90;999.90;;;;;;;;;;5110375;28;20047;-75
2023/07/08 03:56:44;;;;;;;1999.90;999.90;;;;;;;;;;5110511;28;20051;-73
2023/07/08 03:59:10;;;;;;;1999.90;999.90;;;;;;;;;;5108283;28;20039;-75
2023/07/08 04:01:40;;;;;;;1999.90;999.90;;;;;;;;;;5108852;28;20051;-74
2023/07/08 04:04:09;;;;;;;1999.90;999.90;;;;;;;;;;5109191;28;20044;-73
2023/07/08 04:06:35;;;;;;;1999.90;999.90;;;;;;;;;;5108706;28;20653;-74
2023/07/08 04:09:01;;;;;;;1999.90;999.90;;;;;;;;;;5109307;28;20056;-74
2023/07/08 04:11:28;;;;;;;1999.90;999.90;;;;;;;;;;5110584;28;20116;-75
2023/07/08 04:13:56;;;;;;;1999.90;999.90;;;;;;;;;;5110386;28;20445;-73
2023/07/08 04:16:25;;;;;;;1999.90;999.90;;;;;;;;;;5110046;28;20044;-74
2023/07/08 04:18:53;;;;;;;1999.90;999.90;;;;;;;;;;5110261;28;20047;-74
2023/07/08 04:21:19;;;;;;;1999.90;999.90;;;;;;;;;;5110163;28;20079;-72
2023/07/08 04:23:46;;;;;;;1999.90;999.90;;;;;;;;;;5110040;28;20598;-73
2023/07/08 04:26:12;;;;;;;1999.90;999.90;;;;;;;;;;5110110;28;20047;-73
2023/07/08 04:28:39;;;;;;;1999.90;999.90;;;;;;;;;;5109808;28;20109;-72
2023/07/08 04:31:07;;;;;;;1999.90;999.90;;;;;;;;;;5111470;28;20047;-77
2023/07/08 04:33:33;;;;;;;1999.90;999.90;;;;;;;;;;5114252;28;20043;-73
2023/07/08 04:36:00;;;;;;;1999.90;999.90;;;;;;;;;;5114054;28;20047;-73
2023/07/08 04:38:27;;;;;;;1999.90;999.90;;;;;;;;;;5113830;28;20052;-73
2023/07/08 04:40:54;;;;;;;1999.90;999.90;;;;;;;;;;5114032;28;20043;-74
2023/07/08 04:43:21;;;;;;;1999.90;999.90;;;;;;;;;;5113664;28;20184;-73
2023/07/08 04:45:51;;;;;;;1999.90;999.90;;;;;;;;;;5114076;28;20051;-74
2023/07/08 04:48:21;;;;;;;1999.90;999.90;;;;;;;;;;5113607;28;20085;-74
2023/07/08 04:50:51;;;;;;;1999.90;999.90;;;;;;;;;;5113581;28;20082;-74
2023/07/08 04:53:17;;;;;;;1999.90;999.90;;;;;;;;;;5113834;28;20051;-74
2023/07/08 04:55:52;;;;;;;1999.90;999.90;;;;;;;;;;5112471;28;20051;-74
2023/07/08 04:58:18;;;;;;;1999.90;999.90;;;;;;;;;;5113808;28;20051;-73
2023/07/08 05:00:45;;;;;;;1999.90;999.90;;;;;;;;;;5113928;28;20051;-73
2023/07/08 05:03:11;;;;;;;1999.90;999.90;;;;;;;;;;5114179;28;20052;-74
2023/07/08 05:05:42;;;;;;;1999.90;999.90;;;;;;;;;;5113478;28;20052;-73
2023/07/08 05:08:09;;;;;;;1999.90;999.90;;;;;;;;;;5112828;28;20184;-74
2023/07/08 05:10:35;;;;;;;1999.90;999.90;;;;;;;;;;5112219;28;20054;-75
2023/07/08 05:13:02;;;;;;;1999.90;999.90;;;;;;;;;;5113159;28;20058;-74
2023/07/08 05:15:28;;;;;;;1999.90;999.90;;;;;;;;;;5113344;28;20043;-74
2023/07/08 05:17:54;;;;;;;1999.90;999.90;;;;;;;;;;5112801;28;20078;-74
2023/07/08 05:20:22;;;;;;;1999.90;999.90;;;;;;;;;;5113203;28;20419;-74
2023/07/08 05:22:50;;;;;;;1999.90;999.90;;;;;;;;;;5112999;28;20079;-73
2023/07/08 05:25:20;;;;;;;1999.90;999.90;;;;;;;;;;5111069;28;20407;-76
2023/07/08 05:27:46;;;;;;;1999.90;999.90;;;;;;;;;;5111272;28;20075;-74
2023/07/08 05:30:15;;;;;;;1999.90;999.90;;;;;;;;;;5112728;28;20051;-73
2023/07/08 05:32:41;;;;;;;1999.90;999.90;;;;;;;;;;5111101;28;20051;-74
2023/07/08 05:35:08;;;;;;;1999.90;999.90;;;;;;;;;;5113007;28;20100;-73
2023/07/08 05:37:35;;;;;;;1999.90;999.90;;;;;;;;;;5113051;28;20047;-73
2023/07/08 05:40:04;;;;;;;1999.90;999.90;;;;;;;;;;5112066;28;20051;-74
2023/07/08 05:42:31;;;;;;;1999.90;999.90;;;;;;;;;;5111768;28;20131;-74
2023/07/08 05:44:57;;;;;;;1999.90;999.90;;;;;;;;;;5112577;28;20044;-74
2023/07/08 05:47:23;;;;;;;1999.90;999.90;;;;;;;;;;5112758;28;20070;-74
2023/07/08 05:49:50;;;;;;;1999.90;999.90;;;;;;;;;;5112744;28;20066;-74
2023/07/08 05:52:16;;;;;;;1999.90;999.90;;;;;;;;;;5112576;28;20059;-75
2023/07/08 05:54:43;;;;;;;1999.90;999.90;;;;;;;;;;5111505;28;20055;-75
2023/07/08 05:57:12;;;;;;;1999.90;999.90;;;;;;;;;;5112412;28;20063;-73
2023/07/08 05:59:39;;;;;;;1999.90;999.90;;;;;;;;;;5112574;28;20046;-73
2023/07/08 06:02:07;;;;;;;1999.90;999.90;;;;;;;;;;5112198;28;20048;-77
2023/07/08 06:04:33;;;;;;;1999.90;999.90;;;;;;;;;;5111295;28;20062;-74
2023/07/08 06:07:00;;;;;;;1999.90;999.90;;;;;;;;;;5112556;28;20047;-74
2023/07/08 06:09:26;;;;;;;1999.90;999.90;;;;;;;;;;5110854;28;20050;-77
2023/07/08 06:11:53;;;;;;;1999.90;999.90;;;;;;;;;;5112219;28;20058;-73
2023/07/08 06:14:21;;;;;;;1999.90;999.90;;;;;;;;;;5112061;28;20048;-74
2023/07/08 06:16:47;;;;;;;1999.90;999.90;;;;;;;;;;5111845;28;20082;-76
2023/07/08 06:19:14;;;;;;;1999.90;999.90;;;;;;;;;;5111469;28;20044;-73
2023/07/08 06:21:41;;;;;;;1999.90;999.90;;;;;;;;;;5112150;28;20122;-73
2023/07/08 06:24:07;;;;;;;1999.90;999.90;;;;;;;;;;5111880;28;20050;-73
2023/07/08 06:26:34;;;;;;;1999.90;999.90;;;;;;;;;;5111803;28;20048;-73
2023/07/08 06:29:00;;;;;;;1999.90;999.90;;;;;;;;;;5111843;28;20051;-73
2023/07/08 06:31:29;;;;;;;1999.90;999.90;;;;;;;;;;5111689;28;20043;-73
2023/07/08 06:33:55;;;;;;;1999.90;999.90;;;;;;;;;;5111921;28;20478;-73
2023/07/08 06:36:22;;;;;;;1999.90;999.90;;;;;;;;;;5111667;28;20518;-74
2023/07/08 06:38:49;;;;;;;1999.90;999.90;;;;;;;;;;5111841;28;20046;-73
2023/07/08 06:41:15;;;;;;;1999.90;999.90;;;;;;;;;;5111769;28;20056;-73
2023/07/08 06:43:42;;;;;;;1999.90;999.90;;;;;;;;;;5111474;28;20052;-73
2023/07/08 06:46:08;;;;;;;1999.90;999.90;;;;;;;;;;5111608;28;20495;-73
2023/07/08 06:48:36;;;;;;;1999.90;999.90;;;;;;;;;;5111282;28;20114;-74
2023/07/08 06:51:03;;;;;;;1999.90;999.90;;;;;;;;;;5112111;28;20047;-73
2023/07/08 06:53:29;;;;;;;1999.90;999.90;;;;;;;;;;5110734;28;20051;-73
2023/07/08 06:55:56;;;;;;;1999.90;999.90;;;;;;;;;;5111023;28;20059;-72
2023/07/08 06:58:22;;;;;;;1999.90;999.90;;;;;;;;;;5111344;28;20411;-72
2023/07/08 07:00:49;;;;;;;1999.90;999.90;;;;;;;;;;5110156;28;20043;-72
2023/07/08 07:03:15;;;;;;;1999.90;999.90;;;;;;;;;;5110763;28;20108;-73
2023/07/08 07:05:44;;;;;;;1999.90;999.90;;;;;;;;;;5111265;28;20039;-72
2023/07/08 07:08:10;;;;;;;1999.90;999.90;;;;;;;;;;5110515;28;20066;-72
2023/07/08 07:10:37;;;;;;;1999.90;999.90;;;;;;;;;;5110611;28;20048;-72
2023/07/08 07:13:03;;;;;;;1999.90;999.90;;;;;;;;;;5111067;28;20044;-72
2023/07/08 07:15:32;;;;;;;1999.90;999.90;;;;;;;;;;5111081;28;20483;-72
2023/07/08 07:17:58;;;;;;;1999.90;999.90;;;;;;;;;;5110228;28;20047;-72
2023/07/08 07:20:25;;;;;;;1999.90;999.90;;;;;;;;;;5111297;28;20048;-72
2023/07/08 07:22:53;;;;;;;1999.90;999.90;;;;;;;;;;5110819;28;20137;-72
2023/07/08 07:25:20;;;;;;;1999.90;999.90;;;;;;;;;;5110488;28;20036;-72
2023/07/08 07:27:46;;;;;;;1999.90;999.90;;;;;;;;;;5110788;28;20533;-73
2023/07/08 07:30:14;;;;;;;1999.90;999.90;;;;;;;;;;5111026;28;20055;-72
2023/07/08 07:32:41;;;;;;;1999.90;999.90;;;;;;;;;;5110525;28;20491;-70
2023/07/08 07:35:12;;;;;;;1999.90;999.90;;;;;;;;;;5110550;28;20074;-70
2023/07/08 07:37:39;;;;;;;1999.90;999.90;;;;;;;;;;5110769;28;20044;-69
2023/07/08 07:40:12;;;;;;;1999.90;999.90;;;;;;;;;;5110263;28;20422;-70
2023/07/08 07:42:39;;;;;;;1999.90;999.90;;;;;;;;;;5110337;28;20044;-69
2023/07/08 07:45:06;;;;;;;1999.90;999.90;;;;;;;;;;5110711;28;20051;-69
2023/07/08 07:47:33;;;;;;;1999.90;999.90;;;;;;;;;;5110383;28;20407;-69
2023/07/08 07:49:59;;;;;;;1999.90;999.90;;;;;;;;;;5110773;28;20048;-73
2023/07/08 07:52:26;;;;;;;1999.90;999.90;;;;;;;;;;5110767;28;20087;-70
2023/07/08 07:54:53;;;;;;;1999.90;999.90;;;;;;;;;;5109765;28;20056;-70
2023/07/08 07:57:21;;;;;;;1999.90;999.90;;;;;;;;;;5110605;28;20104;-70
2023/07/08 07:59:48;;;;;;;1999.90;999.90;;;;;;;;;;5109511;28;20059;-72
2023/07/08 08:02:15;;;;;;;1999.90;999.90;;;;;;;;;;5110434;28;20122;-71
2023/07/08 08:04:41;;;;;;;1999.90;999.90;;;;;;;;;;5110424;28;20040;-70
2023/07/08 08:07:08;;;;;;;1999.90;999.90;;;;;;;;;;5114658;28;20054;-70
2023/07/08 08:09:34;;;;;;;1999.90;999.90;;;;;;;;;;5114041;28;20040;-71
2023/07/08 08:12:02;;;;;;;1999.90;999.90;;;;;;;;;;5114680;28;20047;-71
2023/07/08 08:14:30;;;;;;;1999.90;999.90;;;;;;;;;;5113876;28;20255;-70
2023/07/08 08:16:56;;;;;;;1999.90;999.90;;;;;;;;;;5113922;28;20048;-71
2023/07/08 08:19:23;;;;;;;1999.90;999.90;;;;;;;;;;5114201;28;20048;-70
2023/07/08 08:21:49;;;;;;;1999.90;999.90;;;;;;;;;;5113797;28;20055;-71
2023/07/08 08:24:16;;;;;;;1999.90;999.90;;;;;;;;;;5112089;28;20375;-70
2023/07/08 08:26:42;;;;;;;1999.90;999.90;;;;;;;;;;5114013;28;20054;-70
2023/07/08 08:29:09;;;;;;;1999.90;999.90;;;;;;;;;;5114107;28;20054;-70
2023/07/08 08:31:37;;;;;;;1999.90;999.90;;;;;;;;;;5113987;28;20039;-73
2023/07/08 08:34:03;;;;;;;1999.90;999.90;;;;;;;;;;5112246;28;20056;-72
2023/07/08 08:36:29;;;;;;;1999.90;999.90;;;;;;;;;;5114223;28;20096;-70
2023/07/08 08:38:56;;;;;;;1999.90;999.90;;;;;;;;;;5113885;28;20058;-73
2023/07/08 08:41:30;;;;;;;1999.90;999.90;;;;;;;;;;5113764;28;20368;-71
2023/07/08 08:43:57;;;;;;;1999.90;999.90;;;;;;;;;;5113770;28;20500;-71
2023/07/08 08:46:28;;;;;;;1999.90;999.90;;;;;;;;;;5113496;28;20050;-72
2023/07/08 08:49:00;;;;;;;1999.90;999.90;;;;;;;;;;5113569;28;20043;-70
2023/07/08 08:51:29;;;;;;;1999.90;999.90;;;;;;;;;;5113373;28;20062;-71
2023/07/08 08:53:57;;;;;;;1999.90;999.90;;;;;;;;;;5112712;28;20051;-72
2023/07/08 08:56:27;;;;;;;1999.90;999.90;;;;;;;;;;5113574;28;20501;-71
2023/07/08 08:58:59;;;;;;;1999.90;999.90;;;;;;;;;;5113389;28;20048;-70
2023/07/08 09:01:26;;;;;;;1999.90;999.90;;;;;;;;;;5112221;28;20050;-71
2023/07/08 09:03:57;;;;;;;1999.90;999.90;;;;;;;;;;5112847;28;20054;-70
2023/07/08 09:06:25;;;;;;;1999.90;999.90;;;;;;;;;;5113028;28;20040;-70
2023/07/08 09:08:53;;;;;;;1999.90;999.90;;;;;;;;;;5113696;28;20067;-70
2023/07/08 09:11:40;;;;;;;1999.90;999.90;;;;;;;;;;5113211;28;20044;-70
2023/07/08 09:14:14;;;;;;;1999.90;999.90;;;;;;;;;;5113353;28;20090;-70
2023/07/08 09:16:46;;;;;;;1999.90;999.90;;;;;;;;;;5111306;28;20039;-71
2023/07/08 09:19:15;;;;;;;1999.90;999.90;;;;;;;;;;5113244;28;20301;-70
2023/07/08 09:21:46;;;;;;;1999.90;999.90;;;;;;;;;;5113204;28;20047;-72
2023/07/08 09:24:18;;;;;;;1999.90;999.90;;;;;;;;;;5113187;28;20068;-71
2023/07/08 09:26:44;;;;;;;1999.90;999.90;;;;;;;;;;5113384;28;20493;-70
2023/07/08 09:29:11;;;;;;;1999.90;999.90;;;;;;;;;;5113100;28;20047;-71
2023/07/08 09:31:39;;;;;;;1999.90;999.90;;;;;;;;;;5113076;28;20380;-71
2023/07/08 09:34:09;;;;;;;1999.90;999.90;;;;;;;;;;5113261;28;20134;-70
2023/07/08 09:36:41;;;;;;;1999.90;999.90;;;;;;;;;;5112763;28;20044;-71
2023/07/08 09:39:11;;;;;;;1999.90;999.90;;;;;;;;;;5113159;28;20479;-70
2023/07/08 09:41:39;;;;;;;1999.90;999.90;;;;;;;;;;5112624;28;20055;-70
2023/07/08 09:44:17;;;;;;;1999.90;999.90;;;;;;;;;;5112319;28;20048;-71
2023/07/08 09:46:45;;;;;;;1999.90;999.90;;;;;;;;;;5110495;28;20051;-71
2023/07/08 09:49:18;;;;;;;1999.90;999.90;;;;;;;;;;5111564;28;20039;-71
2023/07/08 09:51:46;;;;;;;1999.90;999.90;;;;;;;;;;5112336;28;20122;-70
2023/07/08 09:54:13;;;;;;;1999.90;999.90;;;;;;;;;;5112841;28;20047;-71
2023/07/08 09:56:42;;;;;;;1999.90;999.90;;;;;;;;;;5112702;28;20040;-74
2023/07/08 09:59:13;;;;;;;1999.90;999.90;;;;;;;;;;5111019;28;20043;-71
2023/07/08 10:01:40;;;;;;;1999.90;999.90;;;;;;;;;;5111680;28;20047;-70
2023/07/08 10:04:06;;;;;;;1999.90;999.90;;;;;;;;;;5112389;28;20046;-70
2023/07/08 10:06:35;;;;;;;1999.90;999.90;;;;;;;;;;5112415;28;20075;-70
2023/07/08 10:09:03;;;;;;;1999.90;999.90;;;;;;;;;;5112461;28;20522;-70
2023/07/08 10:11:32;;;;;;;1999.90;999.90;;;;;;;;;;5112459;28;20039;-71
2023/07/08 10:14:03;;;;;;;1999.90;999.90;;;;;;;;;;5112158;28;20045;-70
2023/07/08 10:16:32;;;;;;;1999.90;999.90;;;;;;;;;;5111144;28;20058;-71
2023/07/08 10:18:59;;;;;;;1999.90;999.90;;;;;;;;;;5112011;28;20052;-71
2023/07/08 10:21:32;;;;;;;1999.90;999.90;;;;;;;;;;5112367;28;20058;-72
2023/07/08 10:24:11;;;;;;;1999.90;999.90;;;;;;;;;;5111567;28;20495;-73
2023/07/08 10:26:38;;;;;;;1999.90;999.90;;;;;;;;;;5112409;28;20062;-71
2023/07/08 10:29:14;;;;;;;1999.90;999.90;;;;;;;;;;5111702;28;20075;-73
2023/07/08 10:31:47;;;;;;;1999.90;999.90;;;;;;;;;;5112171;28;20058;-71
2023/07/08 10:34:23;;;;;;;1999.90;999.90;;;;;;;;;;5111730;28;20445;-70
2023/07/08 10:36:53;;;;;;;1999.90;999.90;;;;;;;;;;5111838;28;20070;-70
2023/07/08 10:39:49;;;;;;;1999.90;999.90;;;;;;;;;;5112003;28;20043;-71
2023/07/08 10:42:26;;;;;;;1999.90;999.90;;;;;;;;;;5111481;28;20054;-70
2023/07/08 10:44:58;;;;;;;1999.90;999.90;;;;;;;;;;5111907;28;20051;-71
2023/07/08 10:47:37;;;;;;;1999.90;999.90;;;;;;;;;;5110642;28;20051;-73
2023/07/08 10:50:17;;;;;;;1999.90;999.90;;;;;;;;;;5111565;28;20483;-71
2023/07/08 10:52:52;;;;;;;1999.90;999.90;;;;;;;;;;5111722;28;20047;-71
2023/07/08 10:55:34;;;;;;;1999.90;999.90;;;;;;;;;;5109467;28;20055;-70
2023/07/08 10:58:23;;;;;;;1999.90;999.90;;;;;;;;;;5110846;28;20104;-72
2023/07/08 11:00:54;;;;;;;1999.90;999.90;;;;;;;;;;5110164;28;20077;-71
2023/07/08 11:04:00;;;;;;;1999.90;999.90;;;;;;;;;;5111004;28;20059;-71
2023/07/08 11:06:30;;;;;;;1999.90;999.90;;;;;;;;;;5111567;28;20047;-71
2023/07/08 11:08:59;;;;;;;1999.90;999.90;;;;;;;;;;5109941;28;20048;-72
2023/07/08 11:11:34;;;;;;;1999.90;999.90;;;;;;;;;;5110386;28;20050;-72
2023/07/08 11:14:05;;;;;;;1999.90;999.90;;;;;;;;;;5111323;28;20071;-72
2023/07/08 11:16:35;;;;;;;1999.90;999.90;;;;;;;;;;5111291;28;20055;-73
2023/07/08 11:19:05;;;;;;;1999.90;999.90;;;;;;;;;;5111751;28;20047;-70
2023/07/08 11:21:35;;;;;;;1999.90;999.90;;;;;;;;;;5110698;28;20043;-71
2023/07/08 11:24:06;;;;;;;1999.90;999.90;;;;;;;;;;5110141;28;20052;-71
2023/07/08 11:26:39;;;;;;;1999.90;999.90;;;;;;;;;;5110438;28;20047;-72
2023/07/08 11:29:13;;;;;;;1999.90;999.90;;;;;;;;;;5111335;28;20119;-72
2023/07/08 11:31:39;;;;;;;1999.90;999.90;;;;;;;;;;5110914;28;20039;-71
2023/07/08 11:34:06;;;;;;;1999.90;999.90;;;;;;;;;;5110986;28;21245;-72
2023/07/08 11:36:34;;;;;;;1999.90;999.90;;;;;;;;;;5111046;28;20055;-72
2023/07/08 11:39:00;;;;;;;1999.90;999.90;;;;;;;;;;5110652;28;20402;-72
2023/07/08 11:41:29;;;;;;;1999.90;999.90;;;;;;;;;;5110695;28;20067;-73
2023/07/08 11:44:00;;;;;;;1999.90;999.90;;;;;;;;;;5111232;28;20472;-74
2023/07/08 11:46:28;;;;;;;1999.90;999.90;;;;;;;;;;5110740;28;20534;-72
2023/07/08 11:48:57;;;;;;;1999.90;999.90;;;;;;;;;;5110121;28;20576;-71
2023/07/08 11:51:27;;;;;;;1999.90;999.90;;;;;;;;;;5110179;28;20040;-71
2023/07/08 11:54:01;;;;;;;1999.90;999.90;;;;;;;;;;5110416;28;20044;-75
2023/07/08 11:56:27;;;;;;;1999.90;999.90;;;;;;;;;;5109335;28;20079;-73
2023/07/08 11:59:06;;;;;;;1999.90;999.90;;;;;;;;;;5110360;28;20054;-72
2023/07/08 12:01:39;;;;;;;1999.90;999.90;;;;;;;;;;5109957;28;20055;-72
2023/07/08 12:04:17;;;;;;;1999.90;999.90;;;;;;;;;;5109525;28;20395;-72
2023/07/08 12:06:48;;;;;;;1999.90;999.90;;;;;;;;;;5110919;28;20043;-72
2023/07/08 12:09:17;;;;;;;1999.90;999.90;;;;;;;;;;5110589;28;20044;-71
2023/07/08 12:11:46;;;;;;;1999.90;999.90;;;;;;;;;;5109823;28;20047;-71
2023/07/08 12:14:15;;;;;;;1999.90;999.90;;;;;;;;;;5110260;28;20067;-72
2023/07/08 12:16:42;;;;;;;1999.90;999.90;;;;;;;;;;5110468;28;20071;-72
2023/07/08 12:19:12;;;;;;;1999.90;999.90;;;;;;;;;;5110630;28;20069;-72
2023/07/08 12:21:38;;;;;;;1999.90;999.90;;;;;;;;;;5110177;28;20410;-72
2023/07/08 12:24:05;;;;;;;1999.90;999.90;;;;;;;;;;5109718;28;20047;-71
2023/07/08 12:26:32;;;;;;;1999.90;999.90;;;;;;;;;;5110649;28;20048;-72
2023/07/08 12:28:59;;;;;;;1999.90;999.90;;;;;;;;;;5110500;28;20047;-72
2023/07/08 12:31:27;;;;;;;1999.90;999.90;;;;;;;;;;5110028;28;20437;-71
2023/07/08 12:33:53;;;;;;;1999.90;999.90;;;;;;;;;;5110338;28;20376;-72
2023/07/08 12:36:22;;;;;;;1999.90;999.90;;;;;;;;;;5110306;28;20044;-71
2023/07/08 12:38:49;;;;;;;1999.90;999.90;;;;;;;;;;5110305;28;20043;-74
2023/07/08 12:41:18;;;;;;;1999.90;999.90;;;;;;;;;;5110696;28;20048;-71
2023/07/08 12:43:45;;;;;;;1999.90;999.90;;;;;;;;;;5110483;28;20044;-71
2023/07/08 12:46:12;;;;;;;1999.90;999.90;;;;;;;;;;5109872;28;20502;-71
2023/07/08 12:48:41;;;;;;;1999.90;999.90;;;;;;;;;;5109610;28;20040;-72
2023/07/08 12:51:12;;;;;;;1999.90;999.90;;;;;;;;;;5110453;28;20388;-72
2023/07/08 12:53:38;;;;;;;1999.90;999.90;;;;;;;;;;5113597;28;20046;-74
2023/07/08 12:56:05;;;;;;;1999.90;999.90;;;;;;;;;;5113636;28;20465;-72
2023/07/08 12:58:33;;;;;;;1999.90;999.90;;;;;;;;;;5113788;28;20044;-73
2023/07/08 13:01:03;;;;;;;1999.90;999.90;;;;;;;;;;5112763;28;20363;-72
2023/07/08 13:03:32;;;;;;;1999.90;999.90;;;;;;;;;;5112387;28;20051;-73
2023/07/08 13:06:00;;;;;;;1999.90;999.90;;;;;;;;;;5113753;28;20039;-74
2023/07/08 13:08:31;;;;;;;1999.90;999.90;;;;;;;;;;5113765;28;20066;-73
2023/07/08 13:10:59;;;;;;;1999.90;999.90;;;;;;;;;;5112795;28;20507;-72
2023/07/08 13:13:28;;;;;;;1999.90;999.90;;;;;;;;;;5112597;28;20040;-71
2023/07/08 13:15:55;;;;;;;1999.90;999.90;;;;;;;;;;5113529;28;20051;-72
2023/07/08 13:18:25;;;;;;;1999.90;999.90;;;;;;;;;;5113504;28;20483;-72
2023/07/08 13:20:53;;;;;;;1999.90;999.90;;;;;;;;;;5113249;28;20047;-72
2023/07/08 13:23:22;;;;;;;1999.90;999.90;;;;;;;;;;5113413;28;20048;-72
2023/07/08 13:25:49;;;;;;;1999.90;999.90;;;;;;;;;;5113515;28;20462;-73
2023/07/08 13:28:17;;;;;;;1999.90;999.90;;;;;;;;;;5112846;28;20039;-74
2023/07/08 13:30:52;;;;;;;1999.90;999.90;;;;;;;;;;5113322;28;20048;-72
2023/07/08 13:33:19;;;;;;;1999.90;999.90;;;;;;;;;;5111718;28;20472;-76
2023/07/08 13:35:46;;;;;;;1999.90;999.90;;;;;;;;;;5113169;28;20256;-73
2023/07/08 13:38:16;;;;;;;1999.90;999.90;;;;;;;;;;5113241;28;20044;-72
2023/07/08 13:40:46;;;;;;;1999.90;999.90;;;;;;;;;;5111582;28;20075;-73
2023/07/08 13:43:12;;;;;;;1999.90;999.90;;;;;;;;;;5112923;28;20503;-72
2023/07/08 13:45:47;;;;;;;1999.90;999.90;;;;;;;;;;5112936;28;20047;-72
2023/07/08 13:48:19;;;;;;;1999.90;999.90;;;;;;;;;;5112100;28;20048;-73